createdAt,value
2023-03-20T00:01:28.698Z,2.30
2023-03-20T00:03:57.197Z,1.67
2023-03-20T00:06:26.690Z,1.90
2023-03-20T00:08:54.962Z,2.27
2023-03-20T00:11:30.873Z,2.00
2023-03-20T00:14:04.394Z,1.70
2023-03-20T00:16:34.476Z,2.30
2023-03-20T00:19:03.203Z,1.77
2023-03-20T00:21:30.790Z,2.03
2023-03-20T00:23:57.715Z,1.97
2023-03-20T00:26:33.361Z,1.57
2023-03-20T00:29:01.703Z,2.00
2023-03-20T00:31:35.422Z,2.40
2023-03-20T00:34:06.376Z,1.80
2023-03-20T00:36:33.530Z,2.80
2023-03-20T00:39:00.700Z,3.10
2023-03-20T00:41:32.010Z,2.90
2023-03-20T00:44:13.832Z,3.50
2023-03-20T00:46:40.870Z,2.53
2023-03-20T00:49:11.758Z,3.80
2023-03-20T00:51:39.624Z,3.90
2023-03-20T00:54:14.416Z,3.20
2023-03-20T00:57:02.680Z,3.57
2023-03-20T00:59:37.989Z,2.80
2023-03-20T01:02:05.007Z,2.77
2023-03-20T01:04:38.156Z,3.10
2023-03-20T01:07:06.832Z,3.60
2023-03-20T01:09:34.022Z,3.00
2023-03-20T01:12:02.394Z,2.00
2023-03-20T01:14:29.703Z,2.97
2023-03-20T01:16:56.882Z,2.67
2023-03-20T01:19:23.914Z,3.63
2023-03-20T01:21:51.561Z,3.23
2023-03-20T01:24:18.514Z,2.90
2023-03-20T01:26:46.414Z,3.13
2023-03-20T01:29:22.872Z,3.03
2023-03-20T01:31:50.871Z,2.73
2023-03-20T01:34:18.625Z,2.70
2023-03-20T01:36:50.046Z,2.63
2023-03-20T01:39:19.315Z,3.43
2023-03-20T01:41:47.090Z,3.50
2023-03-20T01:44:28.686Z,2.97
2023-03-20T01:46:56.110Z,3.00
2023-03-20T01:49:23.026Z,3.03
2023-03-20T01:51:51.766Z,3.60
2023-03-20T01:54:28.372Z,3.10
2023-03-20T01:56:58.392Z,2.47
2023-03-20T01:59:28.349Z,2.20
2023-03-20T02:01:56.303Z,4.37
2023-03-20T02:04:29.849Z,2.90
2023-03-20T02:06:57.235Z,2.30
2023-03-20T02:09:24.150Z,3.13
2023-03-20T02:11:53.528Z,3.07
2023-03-20T02:14:21.454Z,3.07
2023-03-20T02:16:48.834Z,2.60
2023-03-20T02:19:39.497Z,2.10
2023-03-20T02:22:30.506Z,2.50
2023-03-20T02:25:20.264Z,3.27
2023-03-20T02:28:24.822Z,1.87
2023-03-20T02:31:07.282Z,2.53
2023-03-20T02:34:10.300Z,2.90
2023-03-20T02:37:17.774Z,3.47
2023-03-20T02:40:16.119Z,2.60
2023-03-20T02:42:55.150Z,2.93
2023-03-20T02:45:34.763Z,4.67
2023-03-20T02:48:21.117Z,2.43
2023-03-20T02:51:16.540Z,2.70
2023-03-20T02:53:49.090Z,3.27
2023-03-20T02:56:30.526Z,2.20
2023-03-20T02:59:12.383Z,2.00
2023-03-20T03:01:46.340Z,2.03
2023-03-20T03:04:18.396Z,2.43
2023-03-20T03:06:49.306Z,2.80
2023-03-20T03:09:29.560Z,1.83
2023-03-20T03:12:03.131Z,2.30
2023-03-20T03:14:40.997Z,3.13
2023-03-20T03:17:10.473Z,2.40
2023-03-20T03:19:41.936Z,1.83
2023-03-20T03:22:08.893Z,2.37
2023-03-20T03:24:48.060Z,2.97
2023-03-20T03:27:23.650Z,2.37
2023-03-20T03:29:55.635Z,3.60
2023-03-20T03:32:28.094Z,5.20
2023-03-20T03:34:56.490Z,4.97
2023-03-20T03:37:40.047Z,6.07
2023-03-20T03:40:14.587Z,4.70
2023-03-20T03:42:51.724Z,5.07
2023-03-20T03:45:42.421Z,5.00
2023-03-20T03:48:17.114Z,4.73
2023-03-20T03:50:53.145Z,5.07
2023-03-20T03:53:25.198Z,5.50
2023-03-20T03:55:57.655Z,7.43
2023-03-20T03:58:42.880Z,7.43
2023-03-20T04:01:12.503Z,8.70
2023-03-20T04:03:43.669Z,9.23
2023-03-20T04:06:15.925Z,9.50
2023-03-20T04:08:43.554Z,9.57
2023-03-20T04:11:18.768Z,10.97
2023-03-20T04:13:48.539Z,10.33
2023-03-20T04:16:17.034Z,9.63
2023-03-20T04:18:45.179Z,8.70
2023-03-20T04:21:12.119Z,9.87
2023-03-20T04:23:39.475Z,9.37
2023-03-20T04:26:06.799Z,9.40
2023-03-20T04:28:33.874Z,11.70
2023-03-20T04:31:02.278Z,11.10
2023-03-20T04:33:29.528Z,10.97
2023-03-20T04:35:57.048Z,12.53
2023-03-20T04:38:24.601Z,12.73
2023-03-20T04:40:52.320Z,12.20
2023-03-20T04:43:19.260Z,12.07
2023-03-20T04:45:46.351Z,13.13
2023-03-20T04:48:13.449Z,12.40
2023-03-20T04:50:40.612Z,14.73
2023-03-20T04:53:07.820Z,13.93
2023-03-20T04:55:34.994Z,14.60
2023-03-20T04:58:02.125Z,16.67
2023-03-20T05:00:29.126Z,16.87
2023-03-20T05:02:56.084Z,17.93
2023-03-20T05:05:23.665Z,18.87
2023-03-20T05:07:51.814Z,18.60
2023-03-20T05:10:19.294Z,19.63
2023-03-20T05:12:47.545Z,19.57
2023-03-20T05:15:14.760Z,21.70
2023-03-20T05:17:41.695Z,20.23
2023-03-20T05:20:09.415Z,20.97
2023-03-20T05:22:36.461Z,27.63
2023-03-20T05:25:03.590Z,20.50
2023-03-20T05:27:31.693Z,20.23
2023-03-20T05:29:58.658Z,20.50
2023-03-20T05:32:25.598Z,19.57
2023-03-20T05:34:52.926Z,22.50
2023-03-20T05:37:19.871Z,23.90
2023-03-20T05:39:46.837Z,22.10
2023-03-20T05:42:13.753Z,24.57
2023-03-20T05:44:41.097Z,22.77
2023-03-20T05:47:08.048Z,21.90
2023-03-20T05:49:34.950Z,18.00
2023-03-20T05:52:01.887Z,24.37
2023-03-20T05:54:28.826Z,21.73
2023-03-20T05:56:58.917Z,19.00
2023-03-20T05:59:26.089Z,19.97
2023-03-20T06:01:53.005Z,25.60
2023-03-20T06:04:19.928Z,22.07
2023-03-20T06:06:46.854Z,27.37
2023-03-20T06:09:13.748Z,22.60
2023-03-20T06:11:40.693Z,23.40
2023-03-20T06:14:07.598Z,23.03
2023-03-20T06:16:34.524Z,23.73
2023-03-20T06:19:01.588Z,23.37
2023-03-20T06:21:28.515Z,23.03
2023-03-20T06:23:55.497Z,23.67
2023-03-20T06:26:22.379Z,26.50
2023-03-20T06:28:49.396Z,25.43
2023-03-20T06:31:16.917Z,25.53
2023-03-20T06:33:44.383Z,23.70
2023-03-20T06:36:12.238Z,31.20
2023-03-20T06:38:39.235Z,24.23
2023-03-20T06:41:06.907Z,26.40
2023-03-20T06:43:33.816Z,23.73
2023-03-20T06:46:00.884Z,25.90
2023-03-20T06:48:27.933Z,30.57
2023-03-20T06:50:54.898Z,24.40
2023-03-20T06:53:22.457Z,24.23
2023-03-20T06:55:51.586Z,24.20
2023-03-20T06:58:18.893Z,23.87
2023-03-20T07:00:46.717Z,23.93
2023-03-20T07:03:13.697Z,25.67
2023-03-20T07:05:41.353Z,21.43
2023-03-20T07:08:08.361Z,21.27
2023-03-20T07:10:35.823Z,22.33
2023-03-20T07:13:02.804Z,22.00
2023-03-20T07:15:30.155Z,22.97
2023-03-20T07:17:57.233Z,26.93
2023-03-20T07:20:24.152Z,23.97
2023-03-20T07:22:51.146Z,21.53
2023-03-20T07:25:26.159Z,21.90
2023-03-20T07:27:59.116Z,22.67
2023-03-20T07:30:26.266Z,23.37
2023-03-20T07:32:53.612Z,24.93
2023-03-20T07:35:20.656Z,26.20
2023-03-20T07:37:47.630Z,24.10
2023-03-20T07:40:14.681Z,28.67
2023-03-20T07:42:41.788Z,25.17
2023-03-20T07:45:09.335Z,26.83
2023-03-20T07:47:36.929Z,27.57
2023-03-20T07:50:05.759Z,24.27
2023-03-20T07:52:34.691Z,26.43
2023-03-20T07:55:01.627Z,23.03
2023-03-20T07:57:30.876Z,27.07
2023-03-20T07:59:57.813Z,27.13
2023-03-20T08:02:24.743Z,27.03
2023-03-20T08:04:51.689Z,27.90
2023-03-20T08:07:18.845Z,27.93
2023-03-20T08:09:45.978Z,27.87
2023-03-20T08:12:13.320Z,28.83
2023-03-20T08:14:40.502Z,26.23
2023-03-20T08:17:14.909Z,24.23
2023-03-20T08:19:42.104Z,26.53
2023-03-20T08:22:09.107Z,27.23
2023-03-20T08:24:36.088Z,24.60
2023-03-20T08:27:03.263Z,25.13
2023-03-20T08:29:30.194Z,26.97
2023-03-20T08:31:57.730Z,26.53
2023-03-20T08:34:24.739Z,27.03
2023-03-20T08:36:52.637Z,26.87
2023-03-20T08:39:19.558Z,31.57
2023-03-20T08:41:46.579Z,28.13
2023-03-20T08:44:13.973Z,27.90
2023-03-20T08:46:40.912Z,28.47
2023-03-20T08:49:07.835Z,36.53
2023-03-20T08:51:34.796Z,29.20
2023-03-20T08:54:01.695Z,24.40
2023-03-20T08:56:28.748Z,23.30
2023-03-20T08:58:56.130Z,27.20
2023-03-20T09:01:23.399Z,24.77
2023-03-20T09:03:50.441Z,23.67
2023-03-20T09:06:17.392Z,20.50
2023-03-20T09:08:44.359Z,25.13
2023-03-20T09:11:11.385Z,24.00
2023-03-20T09:13:38.381Z,27.63
2023-03-20T09:16:06.548Z,26.93
2023-03-20T09:18:33.633Z,29.80
2023-03-20T09:21:01.126Z,25.97
2023-03-20T09:23:28.032Z,26.80
2023-03-20T09:25:55.006Z,25.37
2023-03-20T09:28:22.067Z,25.43
2023-03-20T09:30:49.116Z,26.67
2023-03-20T09:33:16.566Z,27.07
2023-03-20T09:35:44.055Z,27.60
2023-03-20T09:38:12.179Z,28.20
2023-03-20T09:40:52.901Z,31.30
2023-03-20T09:43:54.313Z,27.40
2023-03-20T09:46:56.844Z,26.83
2023-03-20T09:49:33.742Z,27.73
2023-03-20T09:52:09.242Z,28.57
2023-03-20T09:54:53.952Z,29.37
2023-03-20T09:57:29.049Z,27.50
2023-03-20T10:00:01.646Z,27.03
2023-03-20T10:03:01.944Z,26.93
2023-03-20T10:06:08.720Z,25.93
2023-03-20T10:08:38.720Z,26.20
2023-03-20T10:11:08.402Z,24.77
2023-03-20T10:13:35.418Z,20.20
2023-03-20T10:16:32.106Z,25.30
2023-03-20T10:19:22.844Z,23.27
2023-03-20T10:21:57.404Z,24.00
2023-03-20T10:24:41.768Z,24.60
2023-03-20T10:27:26.179Z,25.37
2023-03-20T10:30:00.567Z,24.43
2023-03-20T10:32:38.688Z,25.20
2023-03-20T10:35:17.614Z,23.47
2023-03-20T10:38:13.694Z,26.97
2023-03-20T10:40:42.324Z,25.60
2023-03-20T10:43:17.979Z,30.07
2023-03-20T10:45:59.097Z,25.87
2023-03-20T10:48:40.748Z,24.03
2023-03-20T10:51:14.838Z,26.40
2023-03-20T10:53:49.489Z,24.73
2023-03-20T10:56:30.268Z,24.70
2023-03-20T10:59:08.666Z,25.23
2023-03-20T11:01:36.116Z,25.60
2023-03-20T11:04:03.564Z,25.47
2023-03-20T11:06:42.206Z,27.20
2023-03-20T11:09:19.176Z,24.87
2023-03-20T11:11:48.213Z,25.50
2023-03-20T11:14:23.912Z,31.80
2023-03-20T11:16:56.299Z,29.00
2023-03-20T11:19:24.157Z,31.37
2023-03-20T11:21:56.607Z,34.07
2023-03-20T11:24:33.988Z,34.20
2023-03-20T11:27:14.319Z,35.37
2023-03-20T11:29:45.201Z,33.03
2023-03-20T11:32:31.830Z,36.10
2023-03-20T11:35:10.469Z,36.93
2023-03-20T11:37:44.927Z,39.93
2023-03-20T11:40:34.859Z,35.43
2023-03-20T11:43:01.930Z,35.13
2023-03-20T11:45:44.518Z,38.53
2023-03-20T11:48:23.784Z,32.67
2023-03-20T11:51:04.311Z,29.10
2023-03-20T11:53:39.507Z,30.80
2023-03-20T11:56:21.323Z,22.77
2023-03-20T11:59:03.405Z,24.43
2023-03-20T12:01:44.848Z,21.87
2023-03-20T12:04:13.454Z,23.73
2023-03-20T12:06:51.259Z,21.70
2023-03-20T12:09:26.894Z,18.43
2023-03-20T12:12:07.342Z,16.43
2023-03-20T12:14:52.241Z,17.40
2023-03-20T12:17:32.062Z,16.33
2023-03-20T12:20:26.001Z,18.17
2023-03-20T12:23:13.133Z,14.40
2023-03-20T12:26:07.581Z,12.70
2023-03-20T12:28:54.691Z,13.20
2023-03-20T12:31:33.484Z,14.60
2023-03-20T12:34:10.674Z,12.40
2023-03-20T12:36:43.602Z,13.33
2023-03-20T12:39:20.061Z,12.87
2023-03-20T12:41:59.670Z,12.03
2023-03-20T12:44:49.758Z,12.53
2023-03-20T12:47:39.636Z,12.50
2023-03-20T12:50:31.544Z,18.90
2023-03-20T12:53:13.505Z,13.30
2023-03-20T12:55:51.466Z,13.40
2023-03-20T12:58:43.475Z,11.97
2023-03-20T13:01:19.648Z,11.70
2023-03-20T13:03:52.902Z,13.33
2023-03-20T13:06:48.508Z,12.10
2023-03-20T13:09:37.674Z,12.20
2023-03-20T13:12:28.937Z,14.73
2023-03-20T13:15:22.694Z,13.07
2023-03-20T13:18:19.999Z,11.43
2023-03-20T13:20:55.310Z,18.73
2023-03-20T13:23:30.819Z,11.47
2023-03-20T13:26:23.047Z,12.17
2023-03-20T13:29:15.651Z,16.20
2023-03-20T13:32:10.708Z,21.17
2023-03-20T13:35:17.575Z,29.83
2023-03-20T13:37:50.574Z,13.27
2023-03-20T13:40:47.483Z,11.27
2023-03-20T13:43:20.581Z,11.90
2023-03-20T13:45:52.056Z,11.20
2023-03-20T13:48:27.114Z,12.07
2023-03-20T13:51:06.275Z,12.67
2023-03-20T13:53:48.448Z,12.17
2023-03-20T13:56:33.561Z,11.43
2023-03-20T13:59:05.799Z,12.43
2023-03-20T14:01:45.630Z,11.73
2023-03-20T14:04:19.676Z,12.10
2023-03-20T14:06:55.840Z,14.43
2023-03-20T14:09:34.823Z,12.13
2023-03-20T14:12:11.852Z,12.57
2023-03-20T14:14:57.377Z,16.60
2023-03-20T14:17:32.157Z,12.27
2023-03-20T14:20:13.804Z,10.73
2023-03-20T14:22:40.995Z,11.23
2023-03-20T14:25:15.769Z,9.70
2023-03-20T14:27:58.105Z,12.57
2023-03-20T14:30:31.066Z,11.27
2023-03-20T14:33:05.564Z,9.87
2023-03-20T14:35:38.751Z,22.07
2023-03-20T14:38:11.830Z,10.23
2023-03-20T14:40:49.876Z,12.27
2023-03-20T14:43:47.286Z,12.43
2023-03-20T14:46:22.707Z,11.10
2023-03-20T14:48:53.522Z,11.27
2023-03-20T14:51:20.377Z,36.67
2023-03-20T14:54:17.533Z,10.77
2023-03-20T14:56:44.530Z,12.27
2023-03-20T14:59:12.616Z,11.33
2023-03-20T15:01:39.575Z,12.13
2023-03-20T15:04:20.541Z,16.53
2023-03-20T15:07:01.622Z,10.03
2023-03-20T15:09:31.181Z,11.87
2023-03-20T15:12:05.394Z,10.70
2023-03-20T15:14:41.601Z,13.80
2023-03-20T15:17:18.690Z,10.13
2023-03-20T15:19:45.644Z,20.67
2023-03-20T15:22:17.305Z,9.17
2023-03-20T15:24:52.679Z,8.93
2023-03-20T15:27:20.640Z,12.40
2023-03-20T15:29:52.053Z,9.10
2023-03-20T15:32:19.818Z,11.30
2023-03-20T15:34:49.624Z,13.70
2023-03-20T15:37:20.896Z,12.27
2023-03-20T15:39:51.629Z,14.43
2023-03-20T15:42:24.401Z,14.83
2023-03-20T15:44:53.869Z,11.63
2023-03-20T15:47:23.844Z,11.27
2023-03-20T15:49:55.037Z,11.00
2023-03-20T15:52:28.636Z,13.20
2023-03-20T15:54:58.123Z,10.27
2023-03-20T15:57:35.707Z,9.43
2023-03-20T16:00:11.306Z,10.00
2023-03-20T16:02:38.463Z,11.07
2023-03-20T16:05:12.693Z,9.37
2023-03-20T16:07:39.874Z,10.97
2023-03-20T16:10:28.298Z,9.13
2023-03-20T16:12:56.659Z,8.93
2023-03-20T16:15:31.515Z,13.73
2023-03-20T16:18:01.598Z,8.50
2023-03-20T16:20:39.594Z,8.70
2023-03-20T16:23:09.209Z,7.50
2023-03-20T16:25:37.975Z,7.80
2023-03-20T16:28:08.736Z,7.97
2023-03-20T16:30:36.799Z,6.93
2023-03-20T16:33:15.702Z,7.60
2023-03-20T16:35:45.593Z,8.47
2023-03-20T16:38:32.769Z,8.43
2023-03-20T16:41:24.825Z,12.60
2023-03-20T16:43:51.984Z,10.13
2023-03-20T16:46:24.079Z,5.97
2023-03-20T16:48:56.431Z,12.20
2023-03-20T16:51:30.167Z,7.47
2023-03-20T16:54:01.281Z,8.23
2023-03-20T16:56:40.410Z,6.53
2023-03-20T16:59:09.296Z,6.10
2023-03-20T17:01:42.008Z,16.73
2023-03-20T17:04:45.740Z,6.27
2023-03-20T17:07:20.662Z,6.33
2023-03-20T17:10:18.576Z,12.70
2023-03-20T17:12:48.293Z,6.10
2023-03-20T17:15:17.303Z,5.47
2023-03-20T17:17:44.842Z,8.30
2023-03-20T17:20:20.802Z,9.20
2023-03-20T17:22:48.209Z,12.27
2023-03-20T17:25:15.617Z,10.23
2023-03-20T17:27:42.609Z,26.50
2023-03-20T17:30:17.233Z,10.90
2023-03-20T17:32:44.236Z,7.87
2023-03-20T17:35:11.429Z,10.87
2023-03-20T17:37:38.897Z,7.83
2023-03-20T17:40:07.691Z,13.97
2023-03-20T17:42:34.585Z,9.00
2023-03-20T17:45:03.609Z,22.00
2023-03-20T17:47:30.961Z,10.83
2023-03-20T17:49:58.242Z,7.77
2023-03-20T17:52:27.789Z,8.67
2023-03-20T17:54:54.932Z,6.93
2023-03-20T17:57:42.297Z,7.13
2023-03-20T18:00:19.411Z,7.23
2023-03-20T18:02:46.744Z,8.07
2023-03-20T18:05:13.839Z,8.57
2023-03-20T18:07:41.433Z,9.37
2023-03-20T18:10:20.574Z,8.13
2023-03-20T18:12:47.597Z,8.10
2023-03-20T18:15:14.698Z,7.30
2023-03-20T18:17:41.607Z,8.03
2023-03-20T18:20:29.170Z,7.30
2023-03-20T18:22:56.389Z,7.03
2023-03-20T18:25:25.848Z,7.87
2023-03-20T18:27:57.737Z,7.50
2023-03-20T18:30:33.669Z,6.33
2023-03-20T18:33:01.303Z,6.43
2023-03-20T18:35:28.408Z,6.33
2023-03-20T18:37:55.774Z,7.70
2023-03-20T18:40:28.811Z,7.80
2023-03-20T18:42:57.585Z,9.50
2023-03-20T18:45:27.050Z,9.17
2023-03-20T18:47:55.139Z,7.03
2023-03-20T18:50:38.017Z,6.73
2023-03-20T18:53:07.348Z,6.90
2023-03-20T18:55:35.228Z,7.00
2023-03-20T18:58:06.198Z,9.90
2023-03-20T19:00:42.629Z,5.73
2023-03-20T19:03:11.069Z,7.17
2023-03-20T19:05:38.530Z,5.83
2023-03-20T19:08:05.692Z,6.00
2023-03-20T19:10:39.125Z,4.53
2023-03-20T19:13:07.492Z,5.40
2023-03-20T19:15:36.693Z,9.80
2023-03-20T19:18:05.862Z,4.20
2023-03-20T19:20:40.419Z,4.43
2023-03-20T19:23:09.828Z,4.00
2023-03-20T19:25:37.964Z,4.23
2023-03-20T19:28:05.620Z,5.63
2023-03-20T19:30:39.976Z,4.50
2023-03-20T19:33:07.305Z,4.43
2023-03-20T19:38:22.975Z,7.07
2023-03-20T19:40:52.988Z,4.73
2023-03-20T19:43:24.290Z,5.07
2023-03-20T19:45:57.191Z,4.20
2023-03-20T19:48:50.537Z,4.20
2023-03-20T19:51:22.551Z,3.57
2023-03-20T19:53:50.753Z,3.90
2023-03-20T19:56:20.462Z,5.23
2023-03-20T19:58:47.739Z,4.17
2023-03-20T20:01:24.200Z,3.50
2023-03-20T20:03:53.566Z,3.40
2023-03-20T20:06:22.308Z,3.97
2023-03-20T20:08:50.525Z,4.40
2023-03-20T20:11:18.863Z,4.80
2023-03-20T20:14:07.071Z,4.20
2023-03-20T20:16:35.721Z,5.60
2023-03-20T20:19:03.541Z,3.33
2023-03-20T20:24:17.503Z,7.30
2023-03-20T20:26:54.876Z,7.00
2023-03-20T20:29:27.041Z,4.53
2023-03-20T20:31:54.018Z,8.77
2023-03-20T20:39:54.828Z,3.70
2023-03-20T20:42:22.862Z,4.17
2023-03-20T20:44:50.151Z,3.80
2023-03-20T20:47:17.724Z,5.27
2023-03-20T20:49:47.173Z,3.47
2023-03-20T20:52:15.686Z,4.70
2023-03-20T20:54:42.658Z,4.23
2023-03-20T20:57:14.219Z,4.30
2023-03-20T20:59:41.509Z,4.57
2023-03-20T21:02:15.368Z,7.03
2023-03-20T21:04:43.510Z,4.30
2023-03-20T21:07:13.038Z,3.87
2023-03-20T21:09:40.867Z,14.23
2023-03-20T21:12:10.404Z,4.20
2023-03-20T21:14:37.809Z,3.97
2023-03-20T21:17:05.916Z,4.03
2023-03-20T21:19:37.070Z,4.80
2023-03-20T21:22:05.343Z,28.13
2023-03-20T21:24:34.304Z,4.40
2023-03-20T21:27:07.949Z,5.33
2023-03-20T21:29:34.942Z,7.13
2023-03-20T21:32:01.892Z,4.20
2023-03-20T21:34:29.094Z,4.33
2023-03-20T21:36:57.891Z,5.13
2023-03-20T21:39:28.352Z,7.23
2023-03-20T21:41:55.398Z,5.07
2023-03-20T21:45:03.002Z,4.90
2023-03-20T21:48:04.015Z,5.27
2023-03-20T21:53:17.881Z,10.37
2023-03-20T21:56:31.061Z,5.83
2023-03-20T22:01:49.430Z,32.63
2023-03-20T22:13:07.364Z,7.23
2023-03-20T22:18:28.556Z,9.30
2023-03-20T22:21:29.759Z,7.23
2023-03-20T22:24:12.568Z,5.63
2023-03-20T22:32:35.015Z,5.93
2023-03-20T22:38:21.867Z,6.33
2023-03-20T22:40:53.607Z,7.37
2023-03-20T22:44:02.424Z,6.00
2023-03-20T22:45:52.693Z,9.37
2023-03-20T22:48:26.796Z,6.70
2023-03-20T22:50:53.728Z,6.00
2023-03-20T22:53:20.642Z,7.20
2023-03-20T22:55:50.936Z,6.13
2023-03-20T22:58:18.051Z,6.07
2023-03-20T23:00:45.568Z,6.27
2023-03-20T23:03:26.147Z,6.50
2023-03-20T23:05:56.809Z,5.73
2023-03-20T23:08:24.768Z,5.17
2023-03-20T23:10:52.042Z,5.23
2023-03-20T23:13:20.313Z,5.23
2023-03-20T23:15:47.847Z,6.40
2023-03-20T23:18:15.341Z,5.00
2023-03-20T23:20:42.320Z,5.70
2023-03-20T23:23:09.439Z,4.60
2023-03-20T23:25:39.685Z,4.53
2023-03-20T23:28:08.851Z,4.60
2023-03-20T23:30:49.775Z,7.30
2023-03-20T23:33:18.753Z,5.00
2023-03-20T23:35:46.223Z,5.97
2023-03-20T23:38:13.152Z,4.07
2023-03-20T23:40:40.307Z,5.90
2023-03-20T23:43:07.472Z,5.10
2023-03-20T23:45:34.412Z,4.23
2023-03-20T23:48:01.379Z,5.13
2023-03-20T23:50:39.624Z,4.97
2023-03-20T23:53:19.828Z,4.87
2023-03-20T23:55:50.069Z,5.63
2023-03-20T23:58:17.738Z,4.10
